Time;durP1;ratioP1;P1;durP2;ratioP2;P2;SDS_P1;SDS_P2;PMS_P1;PMS_P2;Temp;Humidity;BMP_temperature;BMP_pressure;BME280_temperature;BME280_humidity;BME280_pressure;Samples;Min_cycle;Max_cycle;Signal;HPM_P1;HPM_P2
2023/11/08 00:01:37;;;;;;;23.77;9.20;;;;;;;12.90;100.00;99693.34;6194900;28;20093;-78
2023/11/08 00:04:38;;;;;;;17.88;8.27;;;;;;;12.93;100.00;99692.28;6194998;28;20054;-75
2023/11/08 00:07:42;;;;;;;10.85;7.00;;;;;;;12.96;100.00;99715.59;6195003;28;20082;-78
2023/11/08 00:10:45;;;;;;;16.60;7.03;;;;;;;12.94;100.00;99707.03;6194841;28;20422;-74
2023/11/08 00:13:46;;;;;;;14.75;7.03;;;;;;;12.93;100.00;99715.84;6193843;28;20544;-78
2023/11/08 00:16:46;;;;;;;16.70;7.15;;;;;;;13.02;100.00;99714.31;6196248;28;20133;-78
2023/11/08 00:19:49;;;;;;;13.98;6.32;;;;;;;13.00;100.00;99716.22;6194610;28;20062;-78
2023/11/08 00:22:53;;;;;;;15.38;6.53;;;;;;;13.06;100.00;99721.81;6194789;28;20082;-79
2023/11/08 00:25:54;;;;;;;11.35;6.68;;;;;;;13.15;100.00;99715.03;6195783;28;20046;-74
2023/11/08 00:28:57;;;;;;;13.82;6.72;;;;;;;13.12;100.00;99710.03;6195582;28;20132;-78
2023/11/08 00:31:58;;;;;;;9.45;5.43;;;;;;;12.95;100.00;99687.75;6195396;28;20050;-74
2023/11/08 00:34:59;;;;;;;11.23;5.80;;;;;;;13.04;100.00;99694.06;6195543;28;20050;-74
2023/11/08 00:38:00;;;;;;;22.65;5.95;;;;;;;12.99;100.00;99688.34;6194467;28;20077;-78
2023/11/08 00:41:01;;;;;;;10.70;5.85;;;;;;;12.98;100.00;99687.50;6195366;28;20050;-79
2023/11/08 00:44:02;;;;;;;14.57;6.05;;;;;;;12.91;100.00;99683.72;6195621;28;20057;-78
2023/11/08 00:47:04;;;;;;;9.55;5.65;;;;;;;12.76;100.00;99669.97;6195220;28;20054;-73
2023/11/08 00:50:06;;;;;;;11.32;6.03;;;;;;;12.84;100.00;99675.47;6226616;28;20058;-74
2023/11/08 00:53:15;;;;;;;12.15;5.88;;;;;;;12.92;100.00;99677.50;6191445;28;20133;-74
2023/11/08 00:56:18;;;;;;;8.90;6.07;;;;;;;12.99;100.00;99662.16;6171522;28;20054;-74
2023/11/08 00:59:19;;;;;;;14.13;6.10;;;;;;;13.02;100.00;99659.31;6186081;28;20493;-78
2023/11/08 01:02:20;;;;;;;14.68;6.40;;;;;;;12.99;100.00;99657.78;6203670;28;20058;-78
2023/11/08 01:05:22;;;;;;;11.77;6.13;;;;;;;12.86;100.00;99662.28;6194284;28;20080;-75
2023/11/08 01:08:23;;;;;;;16.17;6.60;;;;;;;12.87;100.00;99656.94;6226458;28;20367;-78
2023/11/08 01:11:24;;;;;;;17.70;5.65;;;;;;;12.79;100.00;99645.38;6193138;28;20054;-78
2023/11/08 01:14:27;;;;;;;16.00;6.53;;;;;;;12.88;100.00;99645.47;6194892;28;20050;-74
2023/11/08 01:17:30;;;;;;;10.95;6.50;;;;;;;12.85;100.00;99639.69;6193888;28;20482;-74
2023/11/08 01:20:32;;;;;;;17.55;6.53;;;;;;;12.95;100.00;99629.28;6193508;28;20409;-75
2023/11/08 01:23:33;;;;;;;15.73;6.88;;;;;;;12.95;100.00;99624.06;6194632;28;20047;-79
2023/11/08 01:26:34;;;;;;;16.65;6.72;;;;;;;12.91;100.00;99628.72;6182058;28;20141;-79
2023/11/08 01:29:35;;;;;;;12.07;5.78;;;;;;;13.04;100.00;99629.44;6174394;28;20090;-79
2023/11/08 01:32:36;;;;;;;12.65;6.13;;;;;;;12.99;100.00;99620.25;6173796;28;20058;-79
2023/11/08 01:35:37;;;;;;;9.05;5.13;;;;;;;12.86;100.00;99626.44;6174695;28;20078;-79
2023/11/08 01:38:39;;;;;;;15.48;6.65;;;;;;;12.86;100.00;99620.38;6174034;28;20058;-79
2023/11/08 01:41:48;;;;;;;12.90;6.47;;;;;;;13.00;100.00;99617.53;6173802;28;20486;-74
2023/11/08 01:44:49;;;;;;;19.65;8.75;;;;;;;12.90;100.00;99625.25;6174051;28;20051;-79
2023/11/08 01:47:51;;;;;;;17.60;9.57;;;;;;;12.78;100.00;99620.13;6173533;28;20062;-79
2023/11/08 01:50:54;;;;;;;19.92;9.45;;;;;;;12.83;100.00;99625.88;6167508;28;20051;-79
2023/11/08 01:53:56;;;;;;;17.88;8.98;;;;;;;12.69;100.00;99632.97;6149871;28;20135;-79
2023/11/08 01:56:57;;;;;;;15.45;8.18;;;;;;;12.82;100.00;99624.19;6192928;28;20081;-79
2023/11/08 02:00:04;;;;;;;16.08;8.98;;;;;;;12.81;100.00;99641.69;6197385;28;20054;-79
2023/11/08 02:03:08;;;;;;;14.10;8.07;;;;;;;12.78;100.00;99652.38;6197176;28;20085;-75
2023/11/08 02:06:15;;;;;;;8.35;6.30;;;;;;;12.65;100.00;99630.72;6197409;28;20097;-76
2023/11/08 02:09:18;;;;;;;13.75;7.10;;;;;;;12.69;100.00;99630.38;6181236;28;20047;-75
2023/11/08 02:12:20;;;;;;;13.45;6.50;;;;;;;12.54;100.00;99621.06;6188410;28;20338;-74
2023/11/08 02:15:24;;;;;;;9.63;5.78;;;;;;;12.66;100.00;99629.75;6190361;28;20105;-74
2023/11/08 02:18:30;;;;;;;8.43;5.57;;;;;;;12.59;100.00;99626.78;6190722;28;20108;-75
2023/11/08 02:21:32;;;;;;;10.10;5.10;;;;;;;12.69;100.00;99629.53;6198714;28;20061;-79
2023/11/08 02:24:33;;;;;;;6.70;4.35;;;;;;;12.73;100.00;99624.91;6196045;28;20077;-74
2023/11/08 02:27:34;;;;;;;6.57;4.82;;;;;;;12.83;100.00;99624.06;6183226;28;20053;-74
2023/11/08 02:30:35;;;;;;;7.38;5.20;;;;;;;12.69;100.00;99621.69;6196506;28;20050;-79
2023/11/08 02:33:40;;;;;;;10.73;6.45;;;;;;;12.59;100.00;99618.09;6198254;28;20149;-79
2023/11/08 02:36:41;;;;;;;11.88;7.28;;;;;;;12.66;100.00;99614.06;6149828;28;20051;-78
2023/11/08 02:39:42;;;;;;;15.00;8.93;;;;;;;12.54;100.00;99617.59;6148442;28;20052;-78
2023/11/08 02:42:47;;;;;;;13.43;8.00;;;;;;;12.41;100.00;99617.72;6157112;28;20046;-79
2023/11/08 02:45:47;;;;;;;17.60;9.88;;;;;;;12.45;100.00;99619.13;6197381;28;20072;-78
2023/11/08 02:48:49;;;;;;;15.82;8.77;;;;;;;12.44;100.00;99620.09;6179096;28;20078;-79
2023/11/08 02:51:54;;;;;;;21.45;9.50;;;;;;;12.36;100.00;99632.94;6184420;28;20050;-79
2023/11/08 02:54:55;;;;;;;13.48;8.52;;;;;;;12.37;100.00;99632.78;6191359;28;20053;-78
2023/11/08 02:57:58;;;;;;;18.42;7.88;;;;;;;12.41;100.00;99639.47;6195990;28;20050;-79
2023/11/08 03:01:00;;;;;;;12.93;7.07;;;;;;;12.42;100.00;99645.56;6196215;28;20409;-78
2023/11/08 03:04:01;;;;;;;16.38;7.40;;;;;;;12.45;100.00;99647.91;6195794;28;20192;-79
2023/11/08 03:07:02;;;;;;;14.02;7.10;;;;;;;12.46;100.00;99647.00;6194898;28;20050;-74
2023/11/08 03:10:04;;;;;;;11.23;6.83;;;;;;;12.50;100.00;99643.19;6196705;28;20081;-73
2023/11/08 03:13:08;;;;;;;18.55;7.38;;;;;;;12.43;100.00;99639.34;6196451;28;20405;-74
2023/11/08 03:16:09;;;;;;;17.63;8.15;;;;;;;12.40;100.00;99637.81;6183701;28;20412;-78
2023/11/08 03:19:10;;;;;;;13.50;6.90;;;;;;;12.68;100.00;99639.19;6184749;28;20070;-79
2023/11/08 03:22:13;;;;;;;17.15;6.10;;;;;;;12.56;100.00;99634.88;6176960;28;20561;-79
2023/11/08 03:25:17;;;;;;;17.20;6.32;;;;;;;12.52;100.00;99630.81;6179690;28;20429;-79
2023/11/08 03:28:18;;;;;;;13.20;5.63;;;;;;;12.54;100.00;99630.69;6195530;28;20366;-79
2023/11/08 03:31:21;;;;;;;18.10;5.43;;;;;;;12.56;100.00;99634.88;6195390;28;20050;-78
2023/11/08 03:34:23;;;;;;;19.35;5.68;;;;;;;12.57;100.00;99627.84;6168026;28;20039;-78
2023/11/08 03:37:26;;;;;;;15.82;5.13;;;;;;;12.58;100.00;99635.59;6193168;28;20042;-78
2023/11/08 03:40:30;;;;;;;14.82;5.18;;;;;;;12.60;100.00;99633.69;6193259;28;20409;-78
2023/11/08 03:43:33;;;;;;;30.70;6.35;;;;;;;12.44;100.00;99641.03;6195976;28;20487;-78
2023/11/08 03:46:34;;;;;;;24.40;6.18;;;;;;;12.48;100.00;99638.06;6192871;28;20094;-74
2023/11/08 03:49:35;;;;;;;24.85;7.22;;;;;;;12.60;100.00;99636.31;6189412;28;20081;-74
2023/11/08 03:52:36;;;;;;;38.22;8.32;;;;;;;12.54;100.00;99628.06;6173433;28;20039;-74
2023/11/08 03:55:39;;;;;;;48.90;10.43;;;;;;;12.62;100.00;99631.78;6194137;28;20043;-79
2023/11/08 03:58:45;;;;;;;84.28;13.98;;;;;;;12.40;100.00;99635.19;6182982;28;20525;-78
2023/11/08 04:01:47;;;;;;;108.85;13.90;;;;;;;12.09;100.00;99623.59;6175026;28;20088;-73
2023/11/08 04:04:48;;;;;;;77.68;13.68;;;;;;;12.08;100.00;99624.50;6175165;28;20553;-79
2023/11/08 04:07:50;;;;;;;98.05;15.32;;;;;;;12.18;100.00;99630.72;6181564;28;20054;-74
2023/11/08 04:10:53;;;;;;;72.07;13.98;;;;;;;12.16;100.00;99626.56;6195248;28;20082;-73
2023/11/08 04:13:54;;;;;;;81.95;15.60;;;;;;;12.06;100.00;99626.41;6188894;28;20038;-74
2023/11/08 04:16:55;;;;;;;66.70;13.68;;;;;;;11.97;100.00;99627.94;6185463;28;20125;-74
2023/11/08 04:19:56;;;;;;;65.13;13.68;;;;;;;12.00;100.00;99637.31;6185820;28;20117;-74
2023/11/08 04:22:57;;;;;;;58.23;12.10;;;;;;;12.02;100.00;99641.47;6179291;28;20498;-74
2023/11/08 04:26:00;;;;;;;35.00;12.32;;;;;;;12.15;100.00;99641.44;6198993;28;20105;-73
2023/11/08 04:29:01;;;;;;;64.35;14.45;;;;;;;12.24;100.00;99645.13;6159786;28;20074;-79
2023/11/08 04:32:02;;;;;;;46.83;13.23;;;;;;;12.14;100.00;99644.97;6161552;28;20043;-74
2023/11/08 04:35:04;;;;;;;38.55;11.75;;;;;;;12.14;100.00;99634.53;6164615;28;20097;-74
2023/11/08 04:38:05;;;;;;;21.10;13.07;;;;;;;12.22;100.00;99633.94;6165090;28;20187;-74
2023/11/08 04:41:12;;;;;;;27.00;12.07;;;;;;;12.02;100.00;99638.03;6169412;28;20296;-78
2023/11/08 04:44:13;;;;;;;37.08;11.98;;;;;;;12.03;100.00;99635.31;6164720;28;20039;-79
2023/11/08 04:47:18;;;;;;;39.30;12.70;;;;;;;12.09;100.00;99647.13;6185400;28;20059;-79
2023/11/08 04:50:19;;;;;;;21.30;12.27;;;;;;;12.13;100.00;99655.53;6158372;28;20050;-73
2023/11/08 04:53:22;;;;;;;35.40;11.88;;;;;;;12.05;100.00;99640.44;6160137;28;20050;-74
2023/11/08 04:56:23;;;;;;;35.92;12.95;;;;;;;12.10;100.00;99641.75;6156378;28;20049;-74
2023/11/08 04:59:24;;;;;;;23.55;11.93;;;;;;;12.22;100.00;99649.66;6204299;28;20051;-74
2023/11/08 05:02:25;;;;;;;44.63;13.38;;;;;;;12.02;100.00;99651.94;6186746;28;20054;-78
2023/11/08 05:05:28;;;;;;;49.67;12.20;;;;;;;11.90;100.00;99663.28;6202042;28;20050;-78
2023/11/08 05:08:29;;;;;;;79.40;12.50;;;;;;;11.64;100.00;99659.94;6201335;28;20058;-78
2023/11/08 05:11:30;;;;;;;37.03;11.75;;;;;;;11.59;100.00;99660.28;6187108;28;20054;-74
2023/11/08 05:14:31;;;;;;;46.90;12.50;;;;;;;11.51;100.00;99659.97;6176022;28;20054;-75
2023/11/08 05:17:33;;;;;;;30.42;12.15;;;;;;;11.77;100.00;99658.09;6195429;28;20389;-78
2023/11/08 05:20:39;;;;;;;45.03;13.27;;;;;;;11.89;100.00;99664.25;6182633;28;20194;-74
2023/11/08 05:23:40;;;;;;;44.20;13.82;;;;;;;11.88;100.00;99667.75;6197332;28;20121;-73
2023/11/08 05:26:44;;;;;;;26.02;11.48;;;;;;;11.94;100.00;99666.53;6198924;28;20145;-74
2023/11/08 05:29:45;;;;;;;48.92;11.20;;;;;;;11.93;100.00;99668.31;6199791;28;20053;-74
2023/11/08 05:32:46;;;;;;;37.22;12.02;;;;;;;11.78;100.00;99657.16;6198100;28;20050;-74
2023/11/08 05:35:47;;;;;;;75.20;17.77;;;;;;;11.79;100.00;99671.06;6198306;28;20133;-73
2023/11/08 05:38:47;;;;;;;50.60;24.35;;;;;;;11.99;100.00;99680.94;6195030;28;20125;-77
2023/11/08 05:41:49;;;;;;;58.40;14.23;;;;;;;12.03;100.00;99677.16;6198244;28;20413;-78
2023/11/08 05:44:50;;;;;;;62.97;11.60;;;;;;;12.03;100.00;99666.69;6198806;28;20051;-78
2023/11/08 05:47:51;;;;;;;55.23;13.73;;;;;;;12.00;100.00;99673.91;6199178;28;20086;-78
2023/11/08 05:50:55;;;;;;;55.42;10.50;;;;;;;12.02;100.00;99674.66;6198275;28;20508;-79
2023/11/08 05:53:55;;;;;;;27.75;8.77;;;;;;;12.02;100.00;99672.84;6198102;28;20042;-78
2023/11/08 05:57:01;;;;;;;32.63;9.15;;;;;;;11.85;100.00;99678.47;6199115;28;20046;-78
2023/11/08 06:00:08;;;;;;;43.40;8.18;;;;;;;11.79;100.00;99676.28;6197783;28;20489;-78
2023/11/08 06:03:12;;;;;;;30.83;8.55;;;;;;;11.94;100.00;99677.81;6191612;28;20039;-79
2023/11/08 06:06:13;;;;;;;25.85;7.50;;;;;;;11.72;100.00;99688.97;6166598;28;20053;-78
2023/11/08 06:09:18;;;;;;;18.38;7.60;;;;;;;11.64;100.00;99713.03;6165783;28;20055;-78
2023/11/08 06:12:19;;;;;;;34.17;13.60;;;;;;;11.76;100.00;99694.81;6167515;28;20062;-78
2023/11/08 06:15:23;;;;;;;46.72;17.20;;;;;;;11.84;100.00;99703.78;6157696;28;20055;-79
2023/11/08 06:18:26;;;;;;;23.17;9.77;;;;;;;11.82;100.00;99707.41;6157233;28;20138;-78
2023/11/08 06:21:27;;;;;;;35.38;8.98;;;;;;;11.84;100.00;99700.31;6189485;28;20081;-78
2023/11/08 06:24:30;;;;;;;21.35;9.70;;;;;;;11.95;100.00;99695.19;6174107;28;20051;-78
2023/11/08 06:27:31;;;;;;;28.92;10.77;;;;;;;12.00;100.00;99694.84;6194049;28;20065;-78
2023/11/08 06:30:32;;;;;;;40.35;10.60;;;;;;;11.97;100.00;99701.13;6198265;28;20054;-78
2023/11/08 06:33:34;;;;;;;33.00;10.27;;;;;;;11.99;100.00;99699.25;6197943;28;20054;-78
2023/11/08 06:36:35;;;;;;;34.73;9.20;;;;;;;12.01;100.00;99705.19;6197175;28;20450;-78
2023/11/08 06:39:37;;;;;;;35.28;8.98;;;;;;;11.94;100.00;99708.34;6196787;28;20065;-78
2023/11/08 06:42:37;;;;;;;28.58;11.18;;;;;;;11.99;100.00;99714.94;6198211;28;20044;-79
2023/11/08 06:45:39;;;;;;;30.27;10.82;;;;;;;11.99;100.00;99701.84;6196462;28;20053;-78
2023/11/08 06:48:40;;;;;;;28.97;10.27;;;;;;;12.01;100.00;99706.97;6197978;28;20053;-73
2023/11/08 06:51:41;;;;;;;22.50;9.37;;;;;;;11.81;100.00;99713.59;6197842;28;20081;-78
2023/11/08 06:54:42;;;;;;;14.55;8.63;;;;;;;11.87;100.00;99723.63;6197839;28;20049;-79
2023/11/08 06:57:47;;;;;;;17.95;8.90;;;;;;;11.97;100.00;99719.44;6196576;28;20054;-79
2023/11/08 07:00:49;;;;;;;24.17;8.38;;;;;;;11.75;100.00;99725.31;6197721;28;20137;-75
2023/11/08 07:03:50;;;;;;;15.45;8.00;;;;;;;11.91;100.00;99738.19;6197320;28;20517;-74
2023/11/08 07:06:51;;;;;;;24.00;8.73;;;;;;;12.01;100.00;99738.38;6197568;28;20061;-74
2023/11/08 07:09:52;;;;;;;16.58;8.02;;;;;;;12.06;100.00;99737.06;6196163;28;20398;-74
2023/11/08 07:12:53;;;;;;;24.85;8.00;;;;;;;11.97;100.00;99731.69;6196167;28;20047;-74
2023/11/08 07:15:54;;;;;;;23.08;9.20;;;;;;;12.00;100.00;99741.91;6195994;28;20132;-74
2023/11/08 07:18:56;;;;;;;20.02;8.57;;;;;;;11.94;100.00;99742.34;6195953;28;20432;-78
2023/11/08 07:21:56;;;;;;;19.85;8.73;;;;;;;11.95;100.00;99744.84;6196309;28;20057;-74
2023/11/08 07:24:57;;;;;;;15.77;9.10;;;;;;;12.00;100.00;99758.41;6196765;28;20050;-74
2023/11/08 07:28:00;;;;;;;15.27;7.38;;;;;;;11.92;100.00;99755.53;6196938;28;20050;-74
2023/11/08 07:31:01;;;;;;;15.07;7.88;;;;;;;11.97;100.00;99763.06;6196721;28;20061;-74
2023/11/08 07:34:05;;;;;;;11.75;6.95;;;;;;;12.08;100.00;99760.50;6195626;28;20069;-74
2023/11/08 07:37:06;;;;;;;16.73;8.23;;;;;;;12.28;100.00;99759.88;6196730;28;20053;-74
2023/11/08 07:40:12;;;;;;;12.80;7.50;;;;;;;12.01;100.00;99744.41;6195348;28;20059;-78
2023/11/08 07:43:13;;;;;;;12.45;7.10;;;;;;;12.15;100.00;99748.66;6194316;28;20408;-78
2023/11/08 07:46:16;;;;;;;14.73;7.20;;;;;;;12.35;100.00;99751.59;6194754;28;20089;-78
2023/11/08 07:49:19;;;;;;;11.80;6.22;;;;;;;12.34;100.00;99749.94;6196595;28;20051;-78
2023/11/08 07:52:20;;;;;;;10.00;5.95;;;;;;;12.43;100.00;99762.34;6196273;28;20046;-78
2023/11/08 07:55:21;;;;;;;11.43;5.95;;;;;;;12.33;100.00;99756.94;6195154;28;20054;-74
2023/11/08 07:58:22;;;;;;;8.73;5.22;;;;;;;12.12;100.00;99764.56;6195001;28;20462;-79
2023/11/08 08:01:23;;;;;;;11.18;5.88;;;;;;;12.14;100.00;99759.22;6194928;28;20649;-73
2023/11/08 08:04:25;;;;;;;11.25;5.88;;;;;;;12.23;100.00;99751.56;6195973;28;20504;-74
2023/11/08 08:07:27;;;;;;;;;;;;;;;12.06;100.00;99751.94;6195600;28;20046;-74
2023/11/08 08:10:31;;;;;;;10.30;5.22;;;;;;;11.98;100.00;99751.63;6196081;28;20203;-74
2023/11/08 08:13:32;;;;;;;11.88;5.15;;;;;;;11.99;100.00;99758.56;6195762;28;20061;-74
2023/11/08 08:16:35;;;;;;;9.02;5.00;;;;;;;11.93;100.00;99762.44;6195813;28;20060;-73
2023/11/08 08:19:36;;;;;;;11.13;5.35;;;;;;;12.02;100.00;99769.59;6194551;28;20104;-74
2023/11/08 08:22:37;;;;;;;6.93;4.50;;;;;;;12.17;100.00;99785.16;6194669;28;20053;-73
2023/11/08 08:25:40;;;;;;;9.27;4.88;;;;;;;12.36;100.00;99789.91;6194317;28;20108;-78
2023/11/08 08:28:41;;;;;;;8.57;4.20;;;;;;;12.29;100.00;99785.13;6194720;28;20386;-73
2023/11/08 08:31:42;;;;;;;4.82;3.28;;;;;;;12.30;100.00;99775.47;6195620;28;20507;-78
2023/11/08 08:34:42;;;;;;;6.53;3.25;;;;;;;11.83;100.00;99779.69;6195358;28;20054;-78
2023/11/08 08:37:43;;;;;;;4.47;3.17;;;;;;;11.98;100.00;99794.31;6195572;28;20489;-73
2023/11/08 08:40:44;;;;;;;6.43;3.53;;;;;;;12.28;100.00;99780.00;6194166;28;20064;-78
2023/11/08 08:43:47;;;;;;;6.40;3.30;;;;;;;12.38;100.00;99777.56;6196226;28;20432;-78
2023/11/08 08:46:49;;;;;;;7.75;3.80;;;;;;;12.49;100.00;99778.41;6195388;28;20065;-78
2023/11/08 08:49:55;;;;;;;5.20;3.42;;;;;;;12.53;100.00;99788.66;6195404;28;20078;-78
2023/11/08 08:52:56;;;;;;;3.60;2.63;;;;;;;12.24;100.00;99787.22;6195257;28;20491;-78
2023/11/08 08:55:57;;;;;;;3.33;2.10;;;;;;;12.02;100.00;99787.91;6194256;28;20050;-78
2023/11/08 08:59:00;;;;;;;3.47;2.25;;;;;;;11.89;100.00;99797.59;6195279;28;20552;-78
2023/11/08 09:02:01;;;;;;;4.50;2.42;;;;;;;12.06;100.00;99801.59;6195446;28;20101;-73
2023/11/08 09:05:03;;;;;;;4.80;2.28;;;;;;;11.79;100.00;99806.97;6193894;28;20054;-77
2023/11/08 09:08:04;;;;;;;5.68;2.55;;;;;;;12.00;100.00;99808.09;6195747;28;20057;-74
2023/11/08 09:11:05;;;;;;;3.53;2.40;;;;;;;11.78;100.00;99807.94;6193802;28;20050;-74
2023/11/08 09:14:09;;;;;;;4.93;2.45;;;;;;;11.83;100.00;99811.06;6194076;28;20067;-73
2023/11/08 09:17:10;;;;;;;3.30;2.22;;;;;;;12.08;100.00;99805.78;6193761;28;20446;-78
2023/11/08 09:20:11;;;;;;;4.28;2.53;;;;;;;11.75;100.00;99813.38;6194930;28;20050;-77
2023/11/08 09:23:12;;;;;;;4.50;1.83;;;;;;;11.93;100.00;99806.88;6195036;28;20046;-73
2023/11/08 09:26:13;;;;;;;4.80;2.38;;;;;;;12.02;100.00;99805.38;6194962;28;20054;-73
2023/11/08 09:29:14;;;;;;;4.18;2.60;;;;;;;11.89;100.00;99808.88;6193783;28;20108;-73
2023/11/08 09:32:14;;;;;;;5.85;3.00;;;;;;;11.90;100.00;99812.31;6193668;28;20051;-74
2023/11/08 09:35:15;;;;;;;2.95;1.70;;;;;;;11.53;100.00;99811.38;6193379;28;20046;-73
2023/11/08 09:38:16;;;;;;;4.03;2.60;;;;;;;11.47;100.00;99817.91;6193566;28;20050;-73
2023/11/08 09:41:21;;;;;;;1.95;1.50;;;;;;;11.26;100.00;99826.25;6193704;28;20151;-73
2023/11/08 09:44:26;;;;;;;2.20;1.33;;;;;;;11.26;100.00;99826.25;6193944;28;20113;-78
2023/11/08 09:47:27;;;;;;;1.35;1.13;;;;;;;11.03;100.00;99821.72;6198992;28;20116;-74
2023/11/08 09:50:30;;;;;;;1.55;1.05;;;;;;;10.96;100.00;99815.25;6199273;28;20057;-79
2023/11/08 09:53:32;;;;;;;1.50;1.25;;;;;;;10.85;100.00;99816.78;6199063;28;20057;-79
2023/11/08 09:56:36;;;;;;;2.85;1.73;;;;;;;10.62;100.00;99823.50;6199187;28;20050;-79
2023/11/08 09:59:43;;;;;;;3.15;1.83;;;;;;;10.83;100.00;99826.50;6199036;28;20077;-79
2023/11/08 10:02:46;;;;;;;2.83;1.70;;;;;;;10.78;100.00;99827.72;6197765;28;20053;-78
2023/11/08 10:05:48;;;;;;;1.92;1.50;;;;;;;10.89;100.00;99830.44;6198835;28;20051;-78
2023/11/08 10:08:49;;;;;;;2.17;1.30;;;;;;;10.88;100.00;99829.63;6199112;28;20050;-78
2023/11/08 10:11:50;;;;;;;2.13;1.45;;;;;;;10.67;100.00;99833.66;6198670;28;20112;-78
2023/11/08 10:14:59;;;;;;;3.25;2.03;;;;;;;10.62;100.00;99826.09;6198457;28;20117;-76
2023/11/08 10:18:00;;;;;;;3.45;1.95;;;;;;;10.47;100.00;99837.53;6198287;28;20050;-78
2023/11/08 10:21:06;;;;;;;2.75;1.80;;;;;;;10.41;100.00;99850.97;6197182;28;20436;-78
2023/11/08 10:24:11;;;;;;;2.63;2.03;;;;;;;10.49;100.00;99857.38;6198406;28;20088;-74
2023/11/08 10:27:16;;;;;;;3.33;1.75;;;;;;;10.61;100.00;99855.75;6198523;28;20054;-74
2023/11/08 10:30:23;;;;;;;2.70;1.60;;;;;;;10.43;100.00;99856.91;6198027;28;20050;-79
2023/11/08 10:33:26;;;;;;;1.75;1.42;;;;;;;10.32;100.00;99869.81;6198592;28;20496;-78
2023/11/08 10:36:30;;;;;;;2.35;1.75;;;;;;;10.25;100.00;99869.31;6196804;28;20046;-78
2023/11/08 10:39:31;;;;;;;4.15;1.95;;;;;;;10.49;100.00;99866.97;6197081;28;20054;-78
2023/11/08 10:42:32;;;;;;;3.47;1.95;;;;;;;10.45;100.00;99874.13;6198091;28;20058;-78
2023/11/08 10:45:34;;;;;;;4.07;2.38;;;;;;;10.35;100.00;99878.25;6197883;28;20221;-78
2023/11/08 10:48:35;;;;;;;4.75;3.05;;;;;;;10.34;100.00;99886.22;6197959;28;20050;-78
2023/11/08 10:51:40;;;;;;;3.88;2.25;;;;;;;10.51;100.00;99885.13;6197849;28;20501;-78
2023/11/08 10:54:42;;;;;;;2.88;2.20;;;;;;;10.19;100.00;99901.84;6196519;28;20132;-78
2023/11/08 10:57:52;;;;;;;3.90;2.15;;;;;;;10.31;100.00;99891.59;6197418;28;20390;-79
2023/11/08 11:00:59;;;;;;;2.78;1.92;;;;;;;10.46;100.00;99895.88;6197776;28;20073;-78
2023/11/08 11:04:04;;;;;;;2.10;1.80;;;;;;;10.56;100.00;99909.16;6197745;28;20116;-74
2023/11/08 11:07:11;;;;;;;2.30;1.88;;;;;;;10.70;100.00;99901.28;6197407;28;20082;-74
2023/11/08 11:10:13;;;;;;;6.32;2.15;;;;;;;10.80;100.00;99909.38;6197280;28;20072;-74
2023/11/08 11:13:27;;;;;;;8.65;2.30;;;;;;;10.96;100.00;99904.00;6196244;28;20050;-74
2023/11/08 11:16:31;;;;;;;3.33;1.80;;;;;;;10.58;100.00;99899.44;6197028;28;20054;-75
2023/11/08 11:19:32;;;;;;;5.82;2.80;;;;;;;10.79;100.00;99902.47;6196108;28;20099;-74
2023/11/08 11:22:33;;;;;;;5.20;2.88;;;;;;;11.02;100.00;99887.94;6197102;28;20050;-74
2023/11/08 11:25:51;;;;;;;2.67;2.20;;;;;;;11.10;100.00;99911.78;6195976;28;20051;-74
2023/11/08 11:28:55;;;;;;;3.17;2.10;;;;;;;10.94;100.00;99895.44;6196772;28;20050;-74
2023/11/08 11:32:03;;;;;;;4.75;2.45;;;;;;;10.81;100.00;99909.28;6195424;28;20133;-74
2023/11/08 11:35:07;;;;;;;5.07;2.80;;;;;;;10.65;100.00;99912.03;6196657;28;20441;-75
2023/11/08 11:38:13;;;;;;;4.53;2.72;;;;;;;11.19;100.00;99910.31;6196441;28;20677;-73
2023/11/08 11:41:19;;;;;;;3.50;2.50;;;;;;;11.23;100.00;99911.78;6196576;28;20050;-78
2023/11/08 11:44:36;;;;;;;3.60;2.50;;;;;;;11.33;100.00;99912.88;6195639;28;20042;-73
2023/11/08 11:47:41;;;;;;;4.40;2.35;;;;;;;11.48;100.00;99903.16;6194923;28;20050;-75
2023/11/08 11:50:44;;;;;;;4.03;2.53;;;;;;;11.34;100.00;99911.09;6196528;28;20050;-74
2023/11/08 11:53:45;;;;;;;5.78;2.55;;;;;;;11.33;100.00;99918.09;6196184;28;20508;-74
2023/11/08 11:56:47;;;;;;;3.83;2.40;;;;;;;11.31;100.00;99917.34;6196040;28;20056;-75
2023/11/08 11:59:53;;;;;;;3.17;2.47;;;;;;;11.29;100.00;99919.22;6196203;28;20425;-74
2023/11/08 12:02:54;;;;;;;8.27;2.67;;;;;;;11.41;100.00;99934.09;6227673;28;20109;-74
2023/11/08 12:05:55;;;;;;;8.43;2.88;;;;;;;11.55;100.00;99927.97;6194855;28;20567;-74
2023/11/08 12:08:56;;;;;;;5.10;2.80;;;;;;;12.00;100.00;99928.38;6194373;28;20133;-79
2023/11/08 12:11:59;;;;;;;6.57;3.60;;;;;;;12.07;100.00;99934.88;6196181;28;20080;-79
2023/11/08 12:15:14;;;;;;;7.57;2.90;;;;;;;12.01;100.00;99937.09;6195991;28;20086;-78
2023/11/08 12:18:17;;;;;;;5.35;2.53;;;;;;;12.01;100.00;99932.69;6195797;28;20054;-74
2023/11/08 12:21:18;;;;;;;4.85;2.72;;;;;;;11.83;100.00;99934.75;6195695;28;20101;-75
2023/11/08 12:24:19;;;;;;;4.55;2.80;;;;;;;12.17;100.00;99940.31;6196192;28;20134;-75
2023/11/08 12:27:22;;;;;;;2.90;2.38;;;;;;;12.22;100.00;99947.84;6194286;28;20064;-74
2023/11/08 12:30:26;;;;;;;4.07;2.53;;;;;;;12.24;100.00;99945.97;6195779;28;20076;-74
2023/11/08 12:33:31;;;;;;;4.90;2.45;;;;;;;12.13;100.00;99954.56;6194102;28;20440;-75
2023/11/08 12:36:38;;;;;;;4.68;2.92;;;;;;;12.12;100.00;99963.31;6194594;28;20047;-74
2023/11/08 12:39:39;;;;;;;2.83;2.25;;;;;;;11.79;100.00;99966.44;6195406;28;20104;-74
2023/11/08 12:42:43;;;;;;;4.30;2.40;;;;;;;11.79;100.00;99964.66;6195620;28;20109;-78
2023/11/08 12:45:49;;;;;;;7.05;1.98;;;;;;;11.92;100.00;99967.28;6195324;28;20724;-78
2023/11/08 12:49:00;;;;;;;4.40;2.70;;;;;;;11.62;100.00;99978.84;6195790;28;20050;-78
2023/11/08 12:52:06;;;;;;;4.95;2.00;;;;;;;12.09;100.00;99976.63;6195127;28;20105;-73
2023/11/08 12:55:07;;;;;;;12.55;2.95;;;;;;;12.00;100.00;99974.63;6194138;28;20077;-74
2023/11/08 12:58:26;;;;;;;6.05;2.38;;;;;;;11.48;100.00;99969.31;6194916;28;20050;-73
2023/11/08 13:01:27;;;;;;;3.13;2.25;;;;;;;11.40;100.00;99983.81;6195345;28;20262;-74
2023/11/08 13:04:31;;;;;;;3.15;1.90;;;;;;;11.51;100.00;99989.19;6188145;28;20042;-73
2023/11/08 13:07:32;;;;;;;3.78;1.90;;;;;;;11.54;100.00;99980.31;6170992;28;20636;-73
2023/11/08 13:10:33;;;;;;;3.78;1.92;;;;;;;11.72;100.00;99981.69;6169950;28;20050;-74
2023/11/08 13:13:35;;;;;;;2.00;1.42;;;;;;;11.75;100.00;99983.25;6169847;28;20051;-74
2023/11/08 13:16:39;;;;;;;2.83;1.90;;;;;;;11.89;100.00;99985.81;6171247;28;20146;-74
2023/11/08 13:19:39;;;;;;;3.00;2.00;;;;;;;12.21;100.00;99986.25;6170326;28;20094;-73
2023/11/08 13:22:45;;;;;;;1.92;1.30;;;;;;;12.07;100.00;99981.13;6174633;28;20046;-73
2023/11/08 13:25:48;;;;;;;1.20;1.02;;;;;;;11.84;99.49;99996.56;6174457;28;20050;-73
2023/11/08 13:28:50;;;;;;;2.00;1.00;;;;;;;11.75;100.00;99994.56;6190698;28;20133;-74
2023/11/08 13:31:51;;;;;;;1.13;0.90;;;;;;;12.07;99.23;100017.75;6175929;28;20078;-73
2023/11/08 13:34:52;;;;;;;2.83;0.90;;;;;;;12.16;99.00;100017.09;6175733;28;20108;-78
2023/11/08 13:37:56;;;;;;;1.52;0.90;;;;;;;12.25;98.82;100021.72;6174046;28;20059;-73
2023/11/08 13:40:57;;;;;;;46.50;25.42;;;;;;;12.36;98.13;100017.53;6173977;28;20058;-73
2023/11/08 13:43:58;;;;;;;9.18;5.72;;;;;;;12.30;96.78;100027.47;6174026;28;20066;-73
2023/11/08 13:46:59;;;;;;;5.28;1.98;;;;;;;12.05;96.18;100040.53;6173635;28;20047;-78
2023/11/08 13:50:00;;;;;;;52.13;19.50;;;;;;;12.25;96.41;100040.03;6174867;28;20158;-73
2023/11/08 13:53:06;;;;;;;28.55;13.38;;;;;;;12.48;96.58;100040.22;6174858;28;20405;-78
2023/11/08 13:56:07;;;;;;;28.35;12.55;;;;;;;12.41;96.57;100042.41;6173942;28;20050;-78
2023/11/08 13:59:08;;;;;;;5.55;3.05;;;;;;;12.36;96.14;100038.47;6173449;28;20486;-78
2023/11/08 14:02:09;;;;;;;2.75;1.60;;;;;;;12.55;96.50;100048.50;6174500;28;20101;-74